createdAt,value
2018-06-14T00:00:43.745Z,16.09
2018-06-14T00:03:15.989Z,15.91
2018-06-14T00:05:48.063Z,15.80
2018-06-14T00:08:20.215Z,15.72
2018-06-14T00:10:52.481Z,15.72
2018-06-14T00:13:24.906Z,15.79
2018-06-14T00:15:59.062Z,15.88
2018-06-14T00:18:31.268Z,15.75
2018-06-14T00:21:02.716Z,15.67
2018-06-14T00:23:35.513Z,15.65
2018-06-14T00:26:07.634Z,15.61
2018-06-14T00:28:39.782Z,15.63
2018-06-14T00:31:11.707Z,15.62
2018-06-14T00:33:43.695Z,15.59
2018-06-14T00:36:15.555Z,15.55
2018-06-14T00:38:48.004Z,15.65
2018-06-14T00:41:19.914Z,15.64
2018-06-14T00:43:55.868Z,15.65
2018-06-14T00:46:28.911Z,15.59
2018-06-14T00:49:00.269Z,15.58
2018-06-14T00:51:32.284Z,15.65
2018-06-14T00:54:04.232Z,15.60
2018-06-14T00:57:39.050Z,15.56
2018-06-14T01:00:11.502Z,15.53
2018-06-14T01:02:43.683Z,15.62
2018-06-14T01:05:15.680Z,15.65
2018-06-14T01:07:48.107Z,15.70
2018-06-14T01:10:20.228Z,15.67
2018-06-14T01:12:52.251Z,15.71
2018-06-14T01:15:25.180Z,15.91
2018-06-14T01:17:57.038Z,15.67
2018-06-14T01:20:29.635Z,15.63
2018-06-14T01:23:01.954Z,15.56
2018-06-14T01:25:34.872Z,15.48
2018-06-14T01:28:07.516Z,15.47
2018-06-14T01:30:39.480Z,15.38
2018-06-14T01:33:11.578Z,15.27
2018-06-14T01:35:43.581Z,15.24
2018-06-14T01:38:26.422Z,15.20
2018-06-14T01:40:59.309Z,15.17
2018-06-14T01:43:31.504Z,15.13
2018-06-14T01:46:03.036Z,15.26
2018-06-14T01:48:35.081Z,15.30
2018-06-14T01:51:07.112Z,15.26
2018-06-14T01:53:39.251Z,15.27
2018-06-14T01:56:12.221Z,15.23
2018-06-14T01:58:45.037Z,15.35
2018-06-14T02:01:17.218Z,15.35
2018-06-14T02:03:49.558Z,15.35
2018-06-14T02:06:22.926Z,15.41
2018-06-14T02:08:55.168Z,15.49
2018-06-14T02:11:28.035Z,15.59
2018-06-14T02:14:00.706Z,15.65
2018-06-14T02:16:33.034Z,15.62
2018-06-14T02:19:05.067Z,15.50
2018-06-14T02:21:37.467Z,15.54
2018-06-14T02:24:09.546Z,15.58
2018-06-14T02:26:41.610Z,15.65
2018-06-14T02:29:13.552Z,15.53
2018-06-14T02:31:46.956Z,15.57
2018-06-14T02:34:18.831Z,15.51
2018-06-14T02:36:50.929Z,15.47
2018-06-14T02:39:23.112Z,15.53
2018-06-14T02:41:55.366Z,15.52
2018-06-14T02:44:27.611Z,15.69
2018-06-14T02:46:59.493Z,15.64
2018-06-14T02:49:31.688Z,15.53
2018-06-14T02:52:03.945Z,15.50
2018-06-14T02:54:36.175Z,15.57
2018-06-14T02:57:08.389Z,15.55
2018-06-14T02:59:40.087Z,15.61
2018-06-14T03:02:12.152Z,15.61
2018-06-14T03:04:44.407Z,15.54
2018-06-14T03:07:20.671Z,15.59
2018-06-14T03:09:52.684Z,15.61
2018-06-14T03:12:24.441Z,15.56
2018-06-14T03:14:56.382Z,15.62
2018-06-14T03:17:28.771Z,15.59
2018-06-14T03:20:00.752Z,15.47
2018-06-14T03:22:32.320Z,15.46
2018-06-14T03:25:04.069Z,15.45
2018-06-14T03:27:35.346Z,15.57
2018-06-14T03:30:07.717Z,15.52
2018-06-14T03:32:39.799Z,15.59
2018-06-14T03:35:11.983Z,15.52
2018-06-14T03:37:44.009Z,15.49
2018-06-14T03:40:16.224Z,15.56
2018-06-14T03:42:48.519Z,15.54
2018-06-14T03:45:21.249Z,15.56
2018-06-14T03:47:53.346Z,15.62
2018-06-14T03:50:26.720Z,15.67
2018-06-14T03:52:58.682Z,15.83
2018-06-14T03:55:30.904Z,15.74
2018-06-14T03:58:03.091Z,15.75
2018-06-14T04:00:35.164Z,15.75
2018-06-14T04:03:07.267Z,15.74
2018-06-14T04:05:39.387Z,15.76
2018-06-14T04:08:11.309Z,15.76
2018-06-14T04:10:43.696Z,15.68
2018-06-14T04:13:15.817Z,15.82
2018-06-14T04:15:48.090Z,15.77
2018-06-14T04:18:20.222Z,15.73
2018-06-14T04:20:52.479Z,15.75
2018-06-14T04:23:24.055Z,15.83
2018-06-14T04:25:56.037Z,15.90
2018-06-14T04:28:28.670Z,15.95
2018-06-14T04:31:00.676Z,15.99
2018-06-14T04:33:32.948Z,15.98
2018-06-14T04:36:05.275Z,16.08
2018-06-14T04:38:37.390Z,16.26
2018-06-14T04:41:09.043Z,16.25
2018-06-14T04:43:40.464Z,16.27
2018-06-14T04:46:12.698Z,16.44
2018-06-14T04:48:45.016Z,16.64
2018-06-14T04:51:17.153Z,16.77
2018-06-14T04:53:49.073Z,16.82
2018-06-14T04:56:21.256Z,16.98
2018-06-14T04:58:53.643Z,17.01
2018-06-14T05:01:25.976Z,17.03
2018-06-14T05:04:07.397Z,17.08
2018-06-14T05:06:41.375Z,17.15
2018-06-14T05:09:14.859Z,17.33
2018-06-14T05:11:46.958Z,17.78
2018-06-14T05:14:19.298Z,17.82
2018-06-14T05:16:50.818Z,17.91
2018-06-14T05:19:22.836Z,18.05
2018-06-14T05:21:54.755Z,18.22
2018-06-14T05:24:27.211Z,18.50
2018-06-14T05:26:59.194Z,18.78
2018-06-14T05:29:31.388Z,18.86
2018-06-14T05:32:03.876Z,18.76
2018-06-14T05:34:37.213Z,18.82
2018-06-14T05:37:11.601Z,18.78
2018-06-14T05:39:44.283Z,18.93
2018-06-14T05:42:16.546Z,19.02
2018-06-14T05:44:48.353Z,18.96
2018-06-14T05:47:23.918Z,18.91
2018-06-14T05:49:56.082Z,18.94
2018-06-14T05:52:28.548Z,19.02
2018-06-14T05:55:01.478Z,18.92
2018-06-14T05:57:33.763Z,18.98
2018-06-14T06:00:06.337Z,18.78
2018-06-14T06:02:38.363Z,18.68
2018-06-14T06:05:09.844Z,18.70
2018-06-14T06:07:41.674Z,18.71
2018-06-14T06:10:13.838Z,18.79
2018-06-14T06:12:45.672Z,18.81
2018-06-14T06:15:17.537Z,18.85
2018-06-14T06:17:50.437Z,18.88
2018-06-14T06:20:22.580Z,18.94
2018-06-14T06:22:55.131Z,18.97
2018-06-14T06:25:27.343Z,19.14
2018-06-14T06:27:59.308Z,19.34
2018-06-14T06:30:31.514Z,20.27
2018-06-14T06:33:03.865Z,21.38
2018-06-14T06:35:35.918Z,22.63
2018-06-14T06:38:08.267Z,22.79
2018-06-14T06:40:40.312Z,22.97
2018-06-14T06:43:11.661Z,23.77
2018-06-14T06:45:43.897Z,24.36
2018-06-14T06:48:16.147Z,24.50
2018-06-14T06:50:48.396Z,24.53
2018-06-14T06:53:19.924Z,24.03
2018-06-14T06:55:51.646Z,23.43
2018-06-14T06:58:24.117Z,23.46
2018-06-14T07:00:56.458Z,24.03
2018-06-14T07:03:29.187Z,24.83
2018-06-14T07:06:01.462Z,25.34
2018-06-14T07:08:33.788Z,25.17
2018-06-14T07:11:21.365Z,24.99
2018-06-14T07:13:54.910Z,25.32
2018-06-14T07:16:27.616Z,25.98
2018-06-14T07:18:59.765Z,26.62
2018-06-14T07:21:32.715Z,26.79
2018-06-14T07:24:04.961Z,26.72
2018-06-14T07:26:37.117Z,26.41
2018-06-14T07:29:09.160Z,26.44
2018-06-14T07:31:41.169Z,26.25
2018-06-14T07:34:13.317Z,26.86
2018-06-14T07:36:45.246Z,25.50
2018-06-14T07:39:17.206Z,24.49
2018-06-14T07:41:50.967Z,25.64
2018-06-14T07:44:23.175Z,25.64
2018-06-14T07:46:54.991Z,23.98
2018-06-14T07:49:55.873Z,24.03
2018-06-14T07:52:27.459Z,24.95
2018-06-14T07:54:59.872Z,25.90
2018-06-14T07:57:31.594Z,26.08
2018-06-14T08:00:03.452Z,26.75
2018-06-14T08:02:35.461Z,27.44
2018-06-14T08:05:06.978Z,28.17
2018-06-14T08:07:38.900Z,28.36
2018-06-14T08:10:12.275Z,28.54
2018-06-14T08:12:44.535Z,27.94
2018-06-14T08:15:17.173Z,28.27
2018-06-14T08:17:49.264Z,27.69
2018-06-14T08:20:20.649Z,28.10
2018-06-14T08:22:52.068Z,27.79
2018-06-14T08:25:24.906Z,27.62
2018-06-14T08:36:21.588Z,28.09
2018-06-14T08:38:53.515Z,25.41
2018-06-14T08:41:25.917Z,25.96
2018-06-14T08:43:57.258Z,25.03
2018-06-14T08:46:29.444Z,23.96
2018-06-14T08:49:01.942Z,25.25
2018-06-14T08:51:34.051Z,25.48
2018-06-14T08:54:06.186Z,26.44
2018-06-14T08:56:38.309Z,27.02
2018-06-14T08:59:10.430Z,26.45
2018-06-14T09:01:42.629Z,25.88
2018-06-14T09:04:14.480Z,26.63
2018-06-14T09:06:45.934Z,25.73
2018-06-14T09:09:17.696Z,26.12
2018-06-14T09:11:49.525Z,26.31
2018-06-14T09:14:21.892Z,26.30
2018-06-14T09:16:53.987Z,26.23
2018-06-14T09:19:30.178Z,26.64
2018-06-14T09:26:14.410Z,25.89
2018-06-14T09:32:09.843Z,23.76
2018-06-14T09:34:41.567Z,23.16
2018-06-14T09:37:13.720Z,24.08
2018-06-14T09:39:45.660Z,25.33
2018-06-14T09:42:17.531Z,24.34
2018-06-14T09:44:49.586Z,24.11
2018-06-14T09:47:21.515Z,24.88
2018-06-14T09:49:53.552Z,24.52
2018-06-14T09:52:25.934Z,23.42
2018-06-14T09:54:58.012Z,23.83
2018-06-14T09:57:30.295Z,24.36
2018-06-14T10:00:02.272Z,24.93
2018-06-14T10:02:33.872Z,25.33
2018-06-14T10:05:06.312Z,24.79
2018-06-14T10:07:38.405Z,24.93
2018-06-14T10:10:10.597Z,25.13
2018-06-14T10:12:42.547Z,24.86
2018-06-14T10:15:14.599Z,24.90
2018-06-14T10:17:46.449Z,24.10
2018-06-14T10:20:18.652Z,25.05
2018-06-14T10:22:50.720Z,25.14
2018-06-14T10:25:22.780Z,25.48
2018-06-14T10:27:55.110Z,25.73
2018-06-14T10:30:27.451Z,25.81
2018-06-14T10:32:59.470Z,25.30
2018-06-14T10:35:31.507Z,25.91
2018-06-14T10:38:03.489Z,25.81
2018-06-14T10:40:35.371Z,25.20
2018-06-14T10:43:07.470Z,26.28
2018-06-14T10:45:39.509Z,26.60
2018-06-14T10:48:11.614Z,25.97
2018-06-14T10:50:43.571Z,26.86
2018-06-14T10:53:15.562Z,25.76
2018-06-14T10:55:47.565Z,26.15
2018-06-14T10:58:18.763Z,26.47
2018-06-14T11:00:50.833Z,26.58
2018-06-14T11:03:22.761Z,27.27
2018-06-14T11:05:55.119Z,27.50
2018-06-14T11:08:27.047Z,25.73
2018-06-14T11:10:58.222Z,25.49
2018-06-14T11:13:30.014Z,24.66
2018-06-14T11:16:02.102Z,24.84
2018-06-14T11:18:34.079Z,25.51
2018-06-14T11:21:05.983Z,25.78
2018-06-14T11:23:37.337Z,25.96
2018-06-14T11:26:09.087Z,25.55
2018-06-14T11:28:40.609Z,25.26
2018-06-14T11:31:12.633Z,25.48
2018-06-14T11:33:44.699Z,25.85
2018-06-14T11:36:17.091Z,25.60
2018-06-14T11:38:49.012Z,26.24
2018-06-14T11:41:20.527Z,26.13
2018-06-14T11:43:52.807Z,25.55
2018-06-14T11:46:25.393Z,25.49
2018-06-14T11:48:57.390Z,26.36
2018-06-14T11:51:28.810Z,25.44
2018-06-14T11:54:00.762Z,25.80
2018-06-14T11:56:32.617Z,26.16
2018-06-14T11:59:04.710Z,26.32
2018-06-14T12:01:36.833Z,25.47
2018-06-14T12:04:08.819Z,25.21
2018-06-14T12:06:40.818Z,25.13
2018-06-14T12:09:12.811Z,24.65
2018-06-14T12:11:44.843Z,24.53
2018-06-14T12:14:16.496Z,24.39
2018-06-14T12:16:48.433Z,24.17
2018-06-14T12:19:20.506Z,24.53
2018-06-14T12:21:52.476Z,24.13
2018-06-14T12:24:24.393Z,23.96
2018-06-14T12:26:56.325Z,24.20
2018-06-14T12:29:28.251Z,24.00
2018-06-14T12:32:00.049Z,23.80
2018-06-14T12:34:31.928Z,23.92
2018-06-14T12:37:03.897Z,23.83
2018-06-14T12:39:35.837Z,24.47
2018-06-14T12:42:07.241Z,24.75
2018-06-14T12:44:39.657Z,24.78
2018-06-14T12:47:11.517Z,25.17
2018-06-14T12:49:42.723Z,25.41
2018-06-14T12:52:14.632Z,25.14
2018-06-14T12:54:46.524Z,24.89
2018-06-14T12:57:18.425Z,24.97
2018-06-14T12:59:50.319Z,25.48
2018-06-14T13:02:21.713Z,25.20
2018-06-14T13:04:53.367Z,24.97
2018-06-14T13:07:27.187Z,24.92
2018-06-14T13:09:58.926Z,25.00
2018-06-14T13:12:31.215Z,25.30
2018-06-14T13:15:03.163Z,24.93
2018-06-14T13:17:35.458Z,24.83
2018-06-14T13:20:08.124Z,24.59
2018-06-14T13:22:41.567Z,24.74
2018-06-14T13:25:16.670Z,25.11
2018-06-14T13:27:48.655Z,24.81
2018-06-14T13:30:20.955Z,24.49
2018-06-14T13:32:53.755Z,24.31
2018-06-14T13:35:26.201Z,24.74
2018-06-14T13:37:57.519Z,24.70
2018-06-14T13:40:29.711Z,24.50
2018-06-14T13:43:01.810Z,24.98
2018-06-14T13:45:33.831Z,24.89
2018-06-14T13:48:05.662Z,24.57
2018-06-14T13:50:37.600Z,24.69
2018-06-14T13:53:09.421Z,24.68
2018-06-14T13:55:40.919Z,24.52
2018-06-14T13:58:12.351Z,24.64
2018-06-14T14:00:43.610Z,24.45
2018-06-14T14:03:15.210Z,24.58
2018-06-14T14:05:46.982Z,24.26
2018-06-14T14:08:18.319Z,24.21
2018-06-14T14:10:50.428Z,24.13
2018-06-14T14:13:22.596Z,24.24
2018-06-14T14:15:54.711Z,24.37
2018-06-14T14:18:26.915Z,24.05
2018-06-14T14:20:58.842Z,24.02
2018-06-14T14:23:31.979Z,24.14
2018-06-14T14:26:03.719Z,24.14
2018-06-14T14:28:36.010Z,24.29
2018-06-14T14:31:08.220Z,24.12
2018-06-14T14:33:47.891Z,24.15
2018-06-14T14:36:24.856Z,24.13
2018-06-14T14:38:57.547Z,24.15
2018-06-14T14:41:30.295Z,24.20
2018-06-14T14:44:02.216Z,24.18
2018-06-14T14:46:33.680Z,24.15
2018-06-14T14:49:05.336Z,24.31
2018-06-14T14:51:37.156Z,24.39
2018-06-14T14:54:08.969Z,24.52
2018-06-14T14:56:41.049Z,24.58
2018-06-14T14:59:13.485Z,24.70
2018-06-14T15:01:45.507Z,24.57
2018-06-14T15:04:17.745Z,24.51
2018-06-14T15:06:49.755Z,24.58
2018-06-14T15:09:34.801Z,24.60
2018-06-14T15:12:18.761Z,24.48
2018-06-14T15:14:54.180Z,24.29
2018-06-14T15:17:26.890Z,24.21
2018-06-14T15:19:58.696Z,24.58
2018-06-14T15:22:30.509Z,24.68
2018-06-14T15:25:02.499Z,24.67
2018-06-14T15:27:34.178Z,24.53
2018-06-14T15:30:05.803Z,24.28
2018-06-14T15:32:38.112Z,24.04
2018-06-14T15:35:11.013Z,23.84
2018-06-14T15:37:42.586Z,23.47
2018-06-14T15:40:14.505Z,23.58
2018-06-14T15:42:45.870Z,23.55
2018-06-14T15:45:17.680Z,23.70
2018-06-14T15:47:52.046Z,23.58
2018-06-14T15:50:24.163Z,23.53
2018-06-14T15:52:56.337Z,23.72
2018-06-14T15:56:50.835Z,23.42
2018-06-14T15:59:22.989Z,23.46
2018-06-14T16:01:54.806Z,23.72
2018-06-14T16:04:26.916Z,23.94
2018-06-14T16:07:00.255Z,23.88
2018-06-14T16:09:32.577Z,23.47
2018-06-14T16:12:05.246Z,23.61
2018-06-14T16:14:39.268Z,23.18
2018-06-14T16:17:12.791Z,23.11
2018-06-14T16:19:46.550Z,23.06
2018-06-14T16:22:20.449Z,23.10
2018-06-14T16:24:53.612Z,22.89
2018-06-14T16:27:26.313Z,23.09
2018-06-14T16:29:58.203Z,22.92
2018-06-14T16:32:30.267Z,22.75
2018-06-14T16:35:04.809Z,22.62
2018-06-14T16:37:37.051Z,22.56
2018-06-14T16:40:09.016Z,22.53
2018-06-14T16:42:42.118Z,22.44
2018-06-14T16:45:14.337Z,22.55
2018-06-14T16:47:45.782Z,22.72
2018-06-14T16:50:17.707Z,22.65
2018-06-14T16:52:49.866Z,22.49
2018-06-14T16:55:21.886Z,22.31
2018-06-14T16:57:53.845Z,22.23
2018-06-14T17:00:25.627Z,22.23
2018-06-14T17:02:57.800Z,22.29
2018-06-14T17:05:29.957Z,22.37
2018-06-14T17:08:02.203Z,22.41
2018-06-14T17:10:34.173Z,22.51
2018-06-14T17:13:06.147Z,22.43
2018-06-14T17:15:37.871Z,22.37
2018-06-14T17:18:10.174Z,22.08
2018-06-14T17:20:41.538Z,22.17
2018-06-14T17:23:13.578Z,22.15
2018-06-14T17:25:44.882Z,22.14
2018-06-14T17:28:16.711Z,22.15
2018-06-14T17:30:48.415Z,22.05
2018-06-14T17:33:20.400Z,22.00
2018-06-14T17:35:52.429Z,21.96
2018-06-14T17:38:25.273Z,21.91
2018-06-14T17:41:34.239Z,21.95
2018-06-14T17:45:00.831Z,21.87
2018-06-14T17:48:26.583Z,21.81
2018-06-14T17:51:02.932Z,21.77
2018-06-14T17:53:34.998Z,21.60
2018-06-14T17:56:08.467Z,21.45
2018-06-14T17:58:40.454Z,21.21
2018-06-14T18:01:12.500Z,21.08
2018-06-14T18:03:44.347Z,21.04
2018-06-14T18:06:16.430Z,20.90
2018-06-14T18:08:48.611Z,20.79
2018-06-14T18:11:21.063Z,20.80
2018-06-14T18:13:53.064Z,20.64
2018-06-14T18:16:26.514Z,20.68
2018-06-14T18:18:58.474Z,20.65
2018-06-14T18:21:30.580Z,20.46
2018-06-14T18:24:02.744Z,20.47
2018-06-14T18:26:34.761Z,20.40
2018-06-14T18:29:06.803Z,20.30
2018-06-14T18:31:38.911Z,20.27
2018-06-14T18:34:11.184Z,20.15
2018-06-14T18:36:43.464Z,20.21
2018-06-14T18:39:15.651Z,20.11
2018-06-14T18:41:47.697Z,20.01
2018-06-14T18:44:20.123Z,19.90
2018-06-14T18:46:52.283Z,19.76
2018-06-14T18:49:24.538Z,19.78
2018-06-14T18:51:56.934Z,19.76
2018-06-14T18:54:39.309Z,19.72
2018-06-14T18:57:11.459Z,19.79
2018-06-14T18:59:43.883Z,19.80
2018-06-14T19:02:16.052Z,19.85
2018-06-14T19:04:48.042Z,19.85
2018-06-14T19:07:20.132Z,19.88
2018-06-14T19:09:52.189Z,19.92
2018-06-14T19:12:24.465Z,19.91
2018-06-14T19:14:57.260Z,19.89
2018-06-14T19:17:29.502Z,19.83
2018-06-14T19:20:09.327Z,19.85
2018-06-14T19:22:41.767Z,19.90
2018-06-14T19:25:14.469Z,19.92
2018-06-14T19:27:49.365Z,19.96
2018-06-14T19:30:25.011Z,19.98
2018-06-14T19:32:58.014Z,20.00
2018-06-14T19:35:30.296Z,19.95
2018-06-14T19:38:02.710Z,20.00
2018-06-14T19:40:34.833Z,19.89
2018-06-14T19:43:06.888Z,19.89
2018-06-14T19:45:39.293Z,19.85
2018-06-14T19:48:11.923Z,19.84
2018-06-14T19:50:48.942Z,19.76
2018-06-14T19:53:21.494Z,19.61
2018-06-14T19:55:55.242Z,19.57
2018-06-14T19:58:27.726Z,19.59
2018-06-14T20:01:01.140Z,19.65
2018-06-14T20:03:33.420Z,19.65
2018-06-14T20:06:05.847Z,19.63
2018-06-14T20:08:39.688Z,19.59
2018-06-14T20:11:12.160Z,19.60
2018-06-14T20:13:44.803Z,19.59
2018-06-14T20:16:17.108Z,19.54
2018-06-14T20:19:14.255Z,19.47
2018-06-14T20:24:56.754Z,19.33
2018-06-14T20:27:29.432Z,19.31
2018-06-14T20:30:02.971Z,19.22
2018-06-14T20:32:35.825Z,19.20
2018-06-14T20:35:08.194Z,19.17
2018-06-14T20:37:40.270Z,19.07
2018-06-14T20:40:12.785Z,19.05
2018-06-14T20:42:44.924Z,18.94
2018-06-14T20:45:19.779Z,18.87
2018-06-14T20:47:51.184Z,18.79
2018-06-14T20:50:28.665Z,18.77
2018-06-14T20:53:00.995Z,18.75
2018-06-14T20:55:33.355Z,18.70
2018-06-14T20:58:04.805Z,18.53
2018-06-14T21:00:44.217Z,18.42
2018-06-14T21:03:42.827Z,18.41
2018-06-14T21:06:28.213Z,18.34
2018-06-14T21:09:00.386Z,18.35
2018-06-14T21:11:32.934Z,18.24
2018-06-14T21:14:07.448Z,18.22
2018-06-14T21:16:39.789Z,18.18
2018-06-14T21:19:11.937Z,18.14
2018-06-14T21:21:44.646Z,18.16
2018-06-14T21:24:17.129Z,18.09
2018-06-14T21:26:51.409Z,18.03
2018-06-14T21:29:23.656Z,18.09
2018-06-14T21:31:58.619Z,18.07
2018-06-14T21:34:30.963Z,18.06
2018-06-14T21:37:03.153Z,18.16
2018-06-14T21:39:35.336Z,18.13
2018-06-14T21:42:07.762Z,18.08
2018-06-14T21:44:44.851Z,18.11
2018-06-14T21:47:17.505Z,18.14
2018-06-14T21:49:50.775Z,18.18
2018-06-14T21:52:23.151Z,18.07
2018-06-14T21:54:56.460Z,17.96
2018-06-14T21:57:29.039Z,17.98
2018-06-14T22:00:01.214Z,17.88
2018-06-14T22:02:33.646Z,17.71
2018-06-14T22:05:05.988Z,17.75
2018-06-14T22:07:38.447Z,17.64
2018-06-14T22:10:10.913Z,17.55
2018-06-14T22:12:42.678Z,17.60
2018-06-14T22:15:17.341Z,17.52
2018-06-14T22:17:49.425Z,17.47
2018-06-14T22:20:22.618Z,17.48
2018-06-14T22:22:54.519Z,17.43
2018-06-14T22:29:11.716Z,17.62
2018-06-14T22:31:51.316Z,17.58
2018-06-14T22:34:39.771Z,17.44
2018-06-14T22:37:12.317Z,17.37
2018-06-14T22:39:44.653Z,17.42
2018-06-14T22:42:16.909Z,17.38
2018-06-14T22:44:48.990Z,17.38
2018-06-14T22:47:20.852Z,17.29
2018-06-14T22:49:52.812Z,17.27
2018-06-14T22:53:00.017Z,17.22
2018-06-14T22:55:32.651Z,17.29
2018-06-14T22:58:05.932Z,17.24
2018-06-14T23:01:54.458Z,17.26
2018-06-14T23:04:28.072Z,17.20
2018-06-14T23:07:00.176Z,17.26
2018-06-14T23:10:46.664Z,17.32
2018-06-14T23:13:19.871Z,17.36
2018-06-14T23:15:51.872Z,17.34
2018-06-14T23:18:23.953Z,17.27
2018-06-14T23:20:55.841Z,17.28
2018-06-14T23:23:28.590Z,17.15
2018-06-14T23:26:00.639Z,17.14
2018-06-14T23:29:06.889Z,17.21
2018-06-14T23:31:38.180Z,16.93
2018-06-14T23:34:09.819Z,16.84
2018-06-14T23:36:42.143Z,16.75
2018-06-14T23:39:14.523Z,16.68
2018-06-14T23:41:46.646Z,16.63
2018-06-14T23:44:18.676Z,16.60
2018-06-14T23:46:51.396Z,16.52
2018-06-14T23:49:23.498Z,16.58
2018-06-14T23:51:55.619Z,16.88
2018-06-14T23:54:28.252Z,16.81
2018-06-14T23:57:00.946Z,16.83
2018-06-14T23:59:33.077Z,16.78
